Ide Min — PC8366 — position and weather

sailwx.info

Track history (hours):
 
Tides and Currents Weather Stations Pressure Air Temp Water Temp Dewpoint Dewpoint Depression Visibility Wind Speed Wind Dir Waves Ship Positions

Ide Min (Netherlands)

Ship's website: http://www.idemin.nl/english/english.html

Last reported at 2016-Aug-30 04:22 UTC. Time now 2016-Aug-30 05:00 UTC.
Position N 54°51' E 010°31'.

Length 40 m; draft 2.4 m.

MMSI: 244537000.

Date/timePositionNaut miles runAvg speedWind from/ knotsBaromVisibWave heightAir tempDewpointWater temp
2016-Aug-30 04:22N 54°51' E 010°31'0 0.0
2016-Aug-30 03:31N 54°51' E 010°31'0 0.0
2016-Aug-30 02:28N 54°51' E 010°31'0 0.0
2016-Aug-30 01:31N 54°51' E 010°31'0 0.0
2016-Aug-30 00:31N 54°51' E 010°31'0 0.0
2016-Aug-29 23:31N 54°51' E 010°31'0 0.0
2016-Aug-29 22:25N 54°51' E 010°31'0 0.0
2016-Aug-29 21:28N 54°51' E 010°31'0 0.0
2016-Aug-29 20:16N 54°51' E 010°31'0 0.0
2016-Aug-29 19:31N 54°51' E 010°31'0 0.0
2016-Aug-29 18:31N 54°51' E 010°31'0 0.0
2016-Aug-29 17:28N 54°51' E 010°31'0 0.0
2016-Aug-29 16:28N 54°51' E 010°31'0 0.0
2016-Aug-29 15:25N 54°51' E 010°31'0 0.0
2016-Aug-29 14:33N 54°51' E 010°31'3 3.3
2016-Aug-29 13:33N 54°48' E 010°31'21 6.9
2016-Aug-29 10:33N 54°29' E 010°15'6 5.6
2016-Aug-29 09:33N 54°24' E 010°12'3 2.6
2016-Aug-29 08:33N 54°22' E 010°09'0 0.0
2016-Aug-29 07:33N 54°22' E 010°09'0 0.0
2016-Aug-29 06:33N 54°22' E 010°09'0 0.0
2016-Aug-29 05:33N 54°22' E 010°09'0 0.0
2016-Aug-29 04:33N 54°22' E 010°09'0 0.0
2016-Aug-29 03:30N 54°22' E 010°09'0 0.0
2016-Aug-29 02:33N 54°22' E 010°09'0 0.0
2016-Aug-29 01:33N 54°22' E 010°09'0 0.0
2016-Aug-29 00:33N 54°22' E 010°09'0 0.0
2016-Aug-28 23:33N 54°22' E 010°09'0 0.0
2016-Aug-28 22:33N 54°22' E 010°09'0 0.0
2016-Aug-28 21:33N 54°22' E 010°09'0 0.0
2016-Aug-28 20:33N 54°22' E 010°09'0 0.0
2016-Aug-28 19:33N 54°22' E 010°09'0 0.0
2016-Aug-28 18:33N 54°22' E 010°09'0 0.0
2016-Aug-28 17:33N 54°22' E 010°09'0 0.0
2016-Aug-28 16:30N 54°22' E 010°09'0 0.0
2016-Aug-28 15:33N 54°22' E 010°09'0 0.0
2016-Aug-28 14:33N 54°22' E 010°09'0 0.0
2016-Aug-28 13:21N 54°22' E 010°09'0 0.0
2016-Aug-28 11:09N 54°22' E 010°09'0 0.0
2016-Aug-28 10:18N 54°22' E 010°09'0 0.0
2016-Aug-28 09:33N 54°22' E 010°09'0 0.0
2016-Aug-28 08:33N 54°22' E 010°09'0 0.0
2016-Aug-27 15:26N 54°22' E 010°09'19 0.7
2016-Aug-26 12:33N 54°41' E 010°03'10 0.4
2016-Aug-25 13:33N 54°50' E 010°08'4 4.4
2016-Aug-25 12:32N 54°49' E 010°16'5 5.5
2016-Aug-25 11:33N 54°49' E 010°25'5 4.7
2016-Aug-25 10:33N 54°51' E 010°32'0 0.1
2016-Aug-25 09:33N 54°51' E 010°31'0 0.0
2016-Aug-25 08:33N 54°51' E 010°31'0 0.0
2016-Aug-25 07:33N 54°51' E 010°31'0 0.0
2016-Aug-25 04:30N 54°51' E 010°31'0 0.0
2016-Aug-25 03:33N 54°51' E 010°31'0 0.0
2016-Aug-25 02:30N 54°51' E 010°31'0 0.0
2016-Aug-25 01:33N 54°51' E 010°31'0 0.0
2016-Aug-25 00:33N 54°51' E 010°31'0 0.0
2016-Aug-24 23:33N 54°51' E 010°31'0 0.0
2016-Aug-24 22:33N 54°51' E 010°31'0 0.0
2016-Aug-24 21:33N 54°51' E 010°31'0 0.0
2016-Aug-24 18:18N 54°51' E 010°31'0 0.0
2016-Aug-24 17:30N 54°51' E 010°31'0 0.0
2016-Aug-24 16:33N 54°51' E 010°31'1 1.1
2016-Aug-24 15:31N 54°51' E 010°33'5 5.4
2016-Aug-24 14:33N 54°46' E 010°37'5 5.0
2016-Aug-24 13:33N 54°43' E 010°44'5 5.2
2016-Aug-24 12:33N 54°42' E 010°53'6 5.6
2016-Aug-24 11:33N 54°38' E 011°00'6 5.7
2016-Aug-24 10:33N 54°35' E 011°09'5 5.0
2016-Aug-24 09:33N 54°31' E 011°14'4 3.7
2016-Aug-24 08:33N 54°28' E 011°17'3 2.7
2016-Aug-24 07:33N 54°26' E 011°19'2 2.2
2016-Aug-24 06:33N 54°24' E 011°17'4 1.8
2016-Aug-24 04:32N 54°25' E 011°11'0 0.0
2016-Aug-24 03:29N 54°25' E 011°11'0 0.0
2016-Aug-24 02:29N 54°25' E 011°11'0 0.0
2016-Aug-24 01:29N 54°25' E 011°11'0 0.0
2016-Aug-24 00:32N 54°25' E 011°11'0 0.0
2016-Aug-23 23:29N 54°25' E 011°11'0 0.0
2016-Aug-23 22:29N 54°25' E 011°11'0 0.0
2016-Aug-23 21:29N 54°25' E 011°11'0 0.0
2016-Aug-23 20:29N 54°25' E 011°11'0 0.0
2016-Aug-23 19:29N 54°25' E 011°11'0 0.0
2016-Aug-23 18:23N 54°25' E 011°11'0 0.0
2016-Aug-23 17:32N 54°25' E 011°11'3 2.6
2016-Aug-23 16:33N 54°24' E 011°15'3 3.4
2016-Aug-23 15:33N 54°23' E 011°21'4 4.4
2016-Aug-23 14:33N 54°25' E 011°28'4 4.2
2016-Aug-23 13:33N 54°25' E 011°35'3 2.7
2016-Aug-23 12:33N 54°26' E 011°39'3 3.2
2016-Aug-23 11:33N 54°29' E 011°43'4 4.2
2016-Aug-23 10:33N 54°33' E 011°45'5 4.6
2016-Aug-23 09:33N 54°37' E 011°47'2 2.5
2016-Aug-23 08:33N 54°39' E 011°44'1 0.8
2016-Aug-23 07:33N 54°40' E 011°44'0 0.0
2016-Aug-23 06:33N 54°40' E 011°44'0 0.0
2016-Aug-23 05:33N 54°40' E 011°44'0 0.0
2016-Aug-23 04:33N 54°40' E 011°44'0 0.0
2016-Aug-23 03:33N 54°40' E 011°44'0 0.0
2016-Aug-23 02:33N 54°40' E 011°44'0 0.0
2016-Aug-23 01:33N 54°40' E 011°44'0 0.0
2016-Aug-23 00:33N 54°40' E 011°44'0 0.0
2016-Aug-22 23:33N 54°40' E 011°44'0 0.0
2016-Aug-22 22:33N 54°40' E 011°44'0 0.0
2016-Aug-22 21:33N 54°40' E 011°44'0 0.0
2016-Aug-22 20:33N 54°40' E 011°44'1 0.6
2016-Aug-22 19:34N 54°39' E 011°44'5 4.8
2016-Aug-22 18:32N 54°37' E 011°51'7 6.7
2016-Aug-22 17:34N 54°31' E 011°55'6 6.2
2016-Aug-22 16:34N 54°25' E 011°57'4 4.5
2016-Aug-22 15:34N 54°20' E 011°60'6 6.0
2016-Aug-22 14:33N 54°15' E 012°04'3 2.5
2016-Aug-22 13:34N 54°12' E 012°04'5 5.3
2016-Aug-22 12:33N 54°07' E 012°06'2 1.7
2016-Aug-22 11:32N 54°06' E 012°08'0 0.0
2016-Aug-22 09:11N 54°06' E 012°08'0 0.0
2016-Aug-22 08:11N 54°06' E 012°08'0 0.0
2016-Aug-22 07:32N 54°06' E 012°08'0 0.0
2016-Aug-22 06:08N 54°06' E 012°08'0 0.0
2016-Aug-21 22:29N 54°06' E 012°08'0 0.0
2016-Aug-21 21:14N 54°06' E 012°08'0 0.0
2016-Aug-21 20:14N 54°06' E 012°08'0 0.0
2016-Aug-21 19:32N 54°06' E 012°08'0 0.0
2016-Aug-21 18:14N 54°06' E 012°08'0 0.0
2016-Aug-21 17:17N 54°06' E 012°08'0 0.0
2016-Aug-21 15:32N 54°06' E 012°08'0 0.0
2016-Aug-21 14:23N 54°06' E 012°08'0 0.0
2016-Aug-21 13:32N 54°06' E 012°08'0 0.0
2016-Aug-21 11:05N 54°06' E 012°08'0 0.0
2016-Aug-21 10:32N 54°06' E 012°08'0 0.2
2016-Aug-21 08:30N 54°06' E 012°07'4 3.8
2016-Aug-21 07:31N 54°09' E 012°06'1 0.4
2016-Aug-21 04:19N 54°11' E 012°06'0 0.0
2016-Aug-21 01:28N 54°11' E 012°06'0 0.0
2016-Aug-21 00:04N 54°11' E 012°06'0 0.0
2016-Aug-20 23:19N 54°11' E 012°06'0 0.0
2016-Aug-20 22:28N 54°11' E 012°06'0 0.0
2016-Aug-20 21:28N 54°11' E 012°06'0 0.0
2016-Aug-20 19:31N 54°11' E 012°06'0 0.0
2016-Aug-20 18:28N 54°11' E 012°06'0 0.2
2016-Aug-20 17:33N 54°11' E 012°05'5 5.4
2016-Aug-20 16:32N 54°16' E 012°08'6 5.7
2016-Aug-20 15:33N 54°22' E 012°11'6 5.7
2016-Aug-20 14:32N 54°27' E 012°16'5 5.4
2016-Aug-20 13:33N 54°31' E 012°20'2 2.2
2016-Aug-20 12:31N 54°34' E 012°21'2 1.7
2016-Aug-20 11:33N 54°35' E 012°23'8 3.6
2016-Aug-20 09:12N 54°30' E 012°34'1 1.4
2016-Aug-20 08:30N 54°29' E 012°33'1 0.6
2016-Aug-20 06:23N 54°28' E 012°31'0 0.0
2016-Aug-20 04:23N 54°28' E 012°31'  
Track history (hours):
 
Tides and Currents Weather Stations Pressure Air Temp Water Temp Dewpoint Dewpoint Depression Visibility Wind Speed Wind Dir Waves Ship Positions

Ide Min (Netherlands)

Ship's website: http://www.idemin.nl/english/english.html

Last reported at 2016-Aug-30 04:22 UTC. Time now 2016-Aug-30 05:00 UTC.
Position N 54°51' E 010°31'.

Length 40 m; draft 2.4 m.

MMSI: 244537000.

Date/timePositionNaut miles runAvg speedWind from/ knotsBaromVisibWave heightAir tempDewpointWater temp
2016-Aug-30 04:22N 54°51' E 010°31'0 0.0
2016-Aug-30 03:31N 54°51' E 010°31'0 0.0
2016-Aug-30 02:28N 54°51' E 010°31'0 0.0
2016-Aug-30 01:31N 54°51' E 010°31'0 0.0
2016-Aug-30 00:31N 54°51' E 010°31'0 0.0
2016-Aug-29 23:31N 54°51' E 010°31'0 0.0
2016-Aug-29 22:25N 54°51' E 010°31'0 0.0
2016-Aug-29 21:28N 54°51' E 010°31'0 0.0
2016-Aug-29 20:16N 54°51' E 010°31'0 0.0
2016-Aug-29 19:31N 54°51' E 010°31'0 0.0
2016-Aug-29 18:31N 54°51' E 010°31'0 0.0
2016-Aug-29 17:28N 54°51' E 010°31'0 0.0
2016-Aug-29 16:28N 54°51' E 010°31'0 0.0
2016-Aug-29 15:25N 54°51' E 010°31'0 0.0
2016-Aug-29 14:33N 54°51' E 010°31'3 3.3
2016-Aug-29 13:33N 54°48' E 010°31'21 6.9
2016-Aug-29 10:33N 54°29' E 010°15'6 5.6
2016-Aug-29 09:33N 54°24' E 010°12'3 2.6
2016-Aug-29 08:33N 54°22' E 010°09'0 0.0
2016-Aug-29 07:33N 54°22' E 010°09'0 0.0
2016-Aug-29 06:33N 54°22' E 010°09'0 0.0
2016-Aug-29 05:33N 54°22' E 010°09'0 0.0
2016-Aug-29 04:33N 54°22' E 010°09'0 0.0
2016-Aug-29 03:30N 54°22' E 010°09'0 0.0
2016-Aug-29 02:33N 54°22' E 010°09'0 0.0
2016-Aug-29 01:33N 54°22' E 010°09'0 0.0
2016-Aug-29 00:33N 54°22' E 010°09'0 0.0
2016-Aug-28 23:33N 54°22' E 010°09'0 0.0
2016-Aug-28 22:33N 54°22' E 010°09'0 0.0
2016-Aug-28 21:33N 54°22' E 010°09'0 0.0
2016-Aug-28 20:33N 54°22' E 010°09'0 0.0
2016-Aug-28 19:33N 54°22' E 010°09'0 0.0
2016-Aug-28 18:33N 54°22' E 010°09'0 0.0
2016-Aug-28 17:33N 54°22' E 010°09'0 0.0
2016-Aug-28 16:30N 54°22' E 010°09'0 0.0
2016-Aug-28 15:33N 54°22' E 010°09'0 0.0
2016-Aug-28 14:33N 54°22' E 010°09'0 0.0
2016-Aug-28 13:21N 54°22' E 010°09'0 0.0
2016-Aug-28 11:09N 54°22' E 010°09'0 0.0
2016-Aug-28 10:18N 54°22' E 010°09'0 0.0
2016-Aug-28 09:33N 54°22' E 010°09'0 0.0
2016-Aug-28 08:33N 54°22' E 010°09'0 0.0
2016-Aug-27 15:26N 54°22' E 010°09'19 0.7
2016-Aug-26 12:33N 54°41' E 010°03'10 0.4
2016-Aug-25 13:33N 54°50' E 010°08'4 4.4
2016-Aug-25 12:32N 54°49' E 010°16'5 5.5
2016-Aug-25 11:33N 54°49' E 010°25'5 4.7
2016-Aug-25 10:33N 54°51' E 010°32'0 0.1
2016-Aug-25 09:33N 54°51' E 010°31'0 0.0
2016-Aug-25 08:33N 54°51' E 010°31'0 0.0
2016-Aug-25 07:33N 54°51' E 010°31'0 0.0
2016-Aug-25 04:30N 54°51' E 010°31'0 0.0
2016-Aug-25 03:33N 54°51' E 010°31'0 0.0
2016-Aug-25 02:30N 54°51' E 010°31'0 0.0
2016-Aug-25 01:33N 54°51' E 010°31'0 0.0
2016-Aug-25 00:33N 54°51' E 010°31'0 0.0
2016-Aug-24 23:33N 54°51' E 010°31'0 0.0
2016-Aug-24 22:33N 54°51' E 010°31'0 0.0
2016-Aug-24 21:33N 54°51' E 010°31'0 0.0
2016-Aug-24 18:18N 54°51' E 010°31'0 0.0
2016-Aug-24 17:30N 54°51' E 010°31'0 0.0
2016-Aug-24 16:33N 54°51' E 010°31'1 1.1
2016-Aug-24 15:31N 54°51' E 010°33'5 5.4
2016-Aug-24 14:33N 54°46' E 010°37'5 5.0
2016-Aug-24 13:33N 54°43' E 010°44'5 5.2
2016-Aug-24 12:33N 54°42' E 010°53'6 5.6
2016-Aug-24 11:33N 54°38' E 011°00'6 5.7
2016-Aug-24 10:33N 54°35' E 011°09'5 5.0
2016-Aug-24 09:33N 54°31' E 011°14'4 3.7
2016-Aug-24 08:33N 54°28' E 011°17'3 2.7
2016-Aug-24 07:33N 54°26' E 011°19'2 2.2
2016-Aug-24 06:33N 54°24' E 011°17'4 1.8
2016-Aug-24 04:32N 54°25' E 011°11'0 0.0
2016-Aug-24 03:29N 54°25' E 011°11'0 0.0
2016-Aug-24 02:29N 54°25' E 011°11'0 0.0
2016-Aug-24 01:29N 54°25' E 011°11'0 0.0
2016-Aug-24 00:32N 54°25' E 011°11'0 0.0
2016-Aug-23 23:29N 54°25' E 011°11'0 0.0
2016-Aug-23 22:29N 54°25' E 011°11'0 0.0
2016-Aug-23 21:29N 54°25' E 011°11'0 0.0
2016-Aug-23 20:29N 54°25' E 011°11'0 0.0
2016-Aug-23 19:29N 54°25' E 011°11'0 0.0
2016-Aug-23 18:23N 54°25' E 011°11'0 0.0
2016-Aug-23 17:32N 54°25' E 011°11'3 2.6
2016-Aug-23 16:33N 54°24' E 011°15'3 3.4
2016-Aug-23 15:33N 54°23' E 011°21'4 4.4
2016-Aug-23 14:33N 54°25' E 011°28'4 4.2
2016-Aug-23 13:33N 54°25' E 011°35'3 2.7
2016-Aug-23 12:33N 54°26' E 011°39'3 3.2
2016-Aug-23 11:33N 54°29' E 011°43'4 4.2
2016-Aug-23 10:33N 54°33' E 011°45'5 4.6
2016-Aug-23 09:33N 54°37' E 011°47'2 2.5
2016-Aug-23 08:33N 54°39' E 011°44'1 0.8
2016-Aug-23 07:33N 54°40' E 011°44'0 0.0
2016-Aug-23 06:33N 54°40' E 011°44'0 0.0
2016-Aug-23 05:33N 54°40' E 011°44'0 0.0
2016-Aug-23 04:33N 54°40' E 011°44'0 0.0
2016-Aug-23 03:33N 54°40' E 011°44'0 0.0
2016-Aug-23 02:33N 54°40' E 011°44'0 0.0
2016-Aug-23 01:33N 54°40' E 011°44'0 0.0
2016-Aug-23 00:33N 54°40' E 011°44'0 0.0
2016-Aug-22 23:33N 54°40' E 011°44'0 0.0
2016-Aug-22 22:33N 54°40' E 011°44'0 0.0
2016-Aug-22 21:33N 54°40' E 011°44'0 0.0
2016-Aug-22 20:33N 54°40' E 011°44'1 0.6
2016-Aug-22 19:34N 54°39' E 011°44'5 4.8
2016-Aug-22 18:32N 54°37' E 011°51'7 6.7
2016-Aug-22 17:34N 54°31' E 011°55'6 6.2
2016-Aug-22 16:34N 54°25' E 011°57'4 4.5
2016-Aug-22 15:34N 54°20' E 011°60'6 6.0
2016-Aug-22 14:33N 54°15' E 012°04'3 2.5
2016-Aug-22 13:34N 54°12' E 012°04'5 5.3
2016-Aug-22 12:33N 54°07' E 012°06'2 1.7
2016-Aug-22 11:32N 54°06' E 012°08'0 0.0
2016-Aug-22 09:11N 54°06' E 012°08'0 0.0
2016-Aug-22 08:11N 54°06' E 012°08'0 0.0
2016-Aug-22 07:32N 54°06' E 012°08'0 0.0
2016-Aug-22 06:08N 54°06' E 012°08'0 0.0
2016-Aug-21 22:29N 54°06' E 012°08'0 0.0
2016-Aug-21 21:14N 54°06' E 012°08'0 0.0
2016-Aug-21 20:14N 54°06' E 012°08'0 0.0
2016-Aug-21 19:32N 54°06' E 012°08'0 0.0
2016-Aug-21 18:14N 54°06' E 012°08'0 0.0
2016-Aug-21 17:17N 54°06' E 012°08'0 0.0
2016-Aug-21 15:32N 54°06' E 012°08'0 0.0
2016-Aug-21 14:23N 54°06' E 012°08'0 0.0
2016-Aug-21 13:32N 54°06' E 012°08'0 0.0
2016-Aug-21 11:05N 54°06' E 012°08'0 0.0
2016-Aug-21 10:32N 54°06' E 012°08'0 0.2
2016-Aug-21 08:30N 54°06' E 012°07'4 3.8
2016-Aug-21 07:31N 54°09' E 012°06'1 0.4
2016-Aug-21 04:19N 54°11' E 012°06'0 0.0
2016-Aug-21 01:28N 54°11' E 012°06'0 0.0
2016-Aug-21 00:04N 54°11' E 012°06'0 0.0
2016-Aug-20 23:19N 54°11' E 012°06'0 0.0
2016-Aug-20 22:28N 54°11' E 012°06'0 0.0
2016-Aug-20 21:28N 54°11' E 012°06'0 0.0
2016-Aug-20 19:31N 54°11' E 012°06'0 0.0
2016-Aug-20 18:28N 54°11' E 012°06'0 0.2
2016-Aug-20 17:33N 54°11' E 012°05'5 5.4
2016-Aug-20 16:32N 54°16' E 012°08'6 5.7
2016-Aug-20 15:33N 54°22' E 012°11'6 5.7
2016-Aug-20 14:32N 54°27' E 012°16'5 5.4
2016-Aug-20 13:33N 54°31' E 012°20'2 2.2
2016-Aug-20 12:31N 54°34' E 012°21'2 1.7
2016-Aug-20 11:33N 54°35' E 012°23'8 3.6
2016-Aug-20 09:12N 54°30' E 012°34'1 1.4
2016-Aug-20 08:30N 54°29' E 012°33'1 0.6
2016-Aug-20 06:23N 54°28' E 012°31'0 0.0
2016-Aug-20 04:23N 54°28' E 012°31'  

Dump ship's entire track history